createdAt,value
2022-11-28T00:01:51.474Z,47.78
2022-11-28T00:04:19.462Z,47.59
2022-11-28T00:06:50.343Z,47.42
2022-11-28T00:09:19.961Z,47.53
2022-11-28T00:11:49.455Z,47.28
2022-11-28T00:14:19.251Z,47.42
2022-11-28T00:16:48.481Z,47.40
2022-11-28T00:19:16.586Z,47.34
2022-11-28T00:21:45.118Z,47.25
2022-11-28T00:24:12.989Z,47.28
2022-11-28T00:26:42.612Z,47.21
2022-11-28T00:29:11.801Z,47.27
2022-11-28T00:31:44.918Z,47.56
2022-11-28T00:34:14.876Z,47.64
2022-11-28T01:00:14.767Z,47.61
2022-11-28T01:02:42.831Z,47.76
2022-11-28T01:05:10.693Z,47.90
2022-11-28T01:07:43.406Z,48.00
2022-11-28T01:10:12.299Z,47.67
2022-11-28T01:12:40.773Z,47.89
2022-11-28T01:34:58.266Z,47.99
2022-11-28T01:37:26.285Z,48.14
2022-11-28T01:39:54.250Z,47.85
2022-11-28T01:42:22.640Z,48.09
2022-11-28T01:44:50.550Z,47.88
2022-11-28T01:47:23.533Z,47.99
2022-11-28T01:49:53.033Z,47.94
2022-11-28T01:52:22.429Z,48.14
2022-11-28T01:54:55.631Z,47.97
2022-11-28T01:57:27.338Z,47.92
2022-11-28T02:00:06.506Z,48.18
2022-11-28T02:02:54.917Z,47.72
2022-11-28T02:05:23.341Z,47.61
2022-11-28T02:07:52.265Z,48.06
2022-11-28T02:10:40.901Z,48.12
2022-11-28T02:13:27.450Z,47.97
2022-11-28T02:15:58.783Z,47.93
2022-11-28T02:18:58.119Z,47.92
2022-11-28T02:21:52.527Z,47.97
2022-11-28T02:24:31.261Z,48.05
2022-11-28T02:26:59.074Z,47.61
2022-11-28T02:29:54.833Z,47.66
2022-11-28T02:32:40.992Z,47.69
2022-11-28T02:35:14.686Z,47.66
2022-11-28T02:38:20.555Z,47.56
2022-11-28T02:41:02.393Z,47.65
2022-11-28T02:43:41.422Z,47.42
2022-11-28T02:46:30.006Z,47.69
2022-11-28T02:49:04.434Z,47.10
2022-11-28T02:51:47.307Z,46.90
2022-11-28T02:54:17.757Z,47.07
2022-11-28T02:56:50.459Z,47.14
2022-11-28T02:59:45.889Z,46.79
2022-11-28T03:02:25.845Z,47.10
2022-11-28T03:04:58.155Z,46.72
2022-11-28T03:07:33.637Z,46.89
2022-11-28T03:10:20.811Z,46.97
2022-11-28T03:13:04.181Z,47.08
2022-11-28T03:15:58.724Z,47.35
2022-11-28T03:18:34.687Z,47.07
2022-11-28T03:21:20.711Z,47.20
2022-11-28T03:24:03.231Z,47.51
2022-11-28T03:26:44.421Z,47.25
2022-11-28T03:29:41.671Z,47.50
2022-11-28T03:32:20.499Z,47.19
2022-11-28T03:34:55.331Z,47.25
2022-11-28T03:37:27.936Z,47.53
2022-11-28T03:40:00.268Z,47.42
2022-11-28T03:42:32.843Z,47.36
2022-11-28T03:45:22.558Z,47.42
2022-11-28T03:48:03.358Z,47.46
2022-11-28T03:50:41.000Z,47.50
2022-11-28T03:53:28.398Z,47.43
2022-11-28T03:56:08.913Z,47.04
2022-11-28T03:58:45.556Z,47.09
2022-11-28T04:01:28.880Z,47.45
2022-11-28T04:04:26.996Z,47.26
2022-11-28T04:06:54.962Z,47.55
2022-11-28T04:09:37.947Z,47.69
2022-11-28T04:12:33.991Z,47.29
2022-11-28T04:15:08.715Z,47.31
2022-11-28T04:17:47.929Z,46.46
2022-11-28T04:20:38.930Z,46.26
2022-11-28T04:23:12.048Z,45.99
2022-11-28T04:25:45.495Z,46.70
2022-11-28T04:28:19.566Z,46.07
2022-11-28T04:30:50.250Z,46.21
2022-11-28T04:33:21.728Z,45.96
2022-11-28T04:35:53.290Z,45.56
2022-11-28T04:38:23.719Z,45.32
2022-11-28T04:40:58.006Z,45.68
2022-11-28T04:43:31.020Z,45.79
2022-11-28T04:46:06.290Z,46.03
2022-11-28T04:48:34.751Z,45.83
2022-11-28T04:51:15.178Z,45.84
2022-11-28T04:54:05.447Z,45.47
2022-11-28T04:56:45.301Z,45.43
2022-11-28T04:59:15.053Z,45.61
2022-11-28T05:01:46.375Z,45.80
2022-11-28T05:04:18.195Z,45.62
2022-11-28T05:06:46.395Z,45.83
2022-11-28T05:09:14.525Z,45.61
2022-11-28T05:11:42.615Z,45.30
2022-11-28T05:14:10.535Z,45.26
2022-11-28T05:16:38.989Z,45.37
2022-11-28T05:19:07.036Z,45.59
2022-11-28T05:21:35.200Z,45.60
2022-11-28T05:24:03.191Z,45.18
2022-11-28T05:26:32.811Z,45.68
2022-11-28T05:29:00.911Z,45.48
2022-11-28T05:31:29.476Z,45.47
2022-11-28T05:33:57.731Z,45.57
2022-11-28T05:36:26.563Z,45.55
2022-11-28T05:38:54.559Z,45.52
2022-11-28T05:41:25.645Z,45.68
2022-11-28T05:43:54.060Z,45.63
2022-11-28T05:46:22.244Z,45.81
2022-11-28T05:48:50.685Z,45.74
2022-11-28T05:51:18.815Z,45.32
2022-11-28T05:53:46.739Z,45.29
2022-11-28T05:56:20.612Z,45.91
2022-11-28T05:58:48.428Z,45.97
2022-11-28T06:01:17.673Z,45.71
2022-11-28T06:03:46.767Z,45.94
2022-11-28T06:06:21.565Z,45.83
2022-11-28T06:08:53.350Z,45.57
2022-11-28T06:11:22.914Z,45.21
2022-11-28T06:13:51.539Z,45.36
2022-11-28T06:16:22.914Z,45.26
2022-11-28T06:18:55.622Z,44.94
2022-11-28T06:21:24.668Z,44.93
2022-11-28T06:23:52.763Z,44.26
2022-11-28T06:26:23.057Z,44.63
2022-11-28T06:28:51.954Z,44.87
2022-11-28T06:31:22.657Z,44.99
2022-11-28T06:33:51.191Z,45.03
2022-11-28T06:36:20.067Z,44.65
2022-11-28T06:38:48.350Z,44.79
2022-11-28T06:41:18.913Z,44.78
2022-11-28T06:43:47.042Z,44.52
2022-11-28T06:46:17.181Z,44.64
2022-11-28T06:48:47.335Z,44.71
2022-11-28T06:51:16.130Z,44.38
2022-11-28T06:53:44.728Z,44.21
2022-11-28T06:56:16.654Z,44.26
2022-11-28T06:58:46.774Z,44.29
2022-11-28T07:01:20.641Z,44.04
2022-11-28T07:03:49.577Z,43.73
2022-11-28T07:06:20.162Z,43.64
2022-11-28T07:08:50.754Z,43.73
2022-11-28T07:11:27.272Z,43.84
2022-11-28T07:13:56.404Z,43.92
2022-11-28T07:16:32.098Z,43.72
2022-11-28T07:19:01.066Z,43.65
2022-11-28T07:21:29.581Z,43.40
2022-11-28T07:23:59.838Z,43.31
2022-11-28T07:26:28.302Z,43.13
2022-11-28T07:28:58.479Z,43.35
2022-11-28T07:31:32.045Z,43.45
2022-11-28T07:34:03.671Z,43.22
2022-11-28T07:36:31.993Z,43.16
2022-11-28T07:39:03.403Z,43.22
2022-11-28T07:41:32.263Z,43.23
2022-11-28T07:44:02.099Z,43.36
2022-11-28T07:46:32.434Z,43.67
2022-11-28T07:49:01.095Z,42.56
2022-11-28T07:51:32.215Z,43.20
2022-11-28T07:54:01.768Z,42.65
2022-11-28T07:56:57.131Z,41.93
2022-11-28T07:59:21.900Z,42.27
2022-11-28T08:01:51.212Z,41.87
2022-11-28T08:04:20.964Z,41.98
2022-11-28T08:06:49.463Z,42.21
2022-11-28T08:09:17.349Z,42.09
2022-11-28T08:11:45.597Z,42.29
2022-11-28T08:14:14.632Z,42.18
2022-11-28T08:16:49.753Z,43.01
2022-11-28T08:19:19.468Z,43.45
2022-11-28T08:21:49.433Z,43.73
2022-11-28T08:24:18.180Z,43.33
2022-11-28T08:26:46.297Z,43.03
2022-11-28T08:29:14.581Z,42.81
2022-11-28T08:31:42.699Z,43.06
2022-11-28T08:34:11.119Z,42.77
2022-11-28T08:36:39.265Z,42.42
2022-11-28T08:39:24.502Z,42.55
2022-11-28T08:41:57.511Z,42.26
2022-11-28T08:44:30.285Z,41.98
2022-11-28T08:46:58.769Z,42.41
2022-11-28T08:49:27.313Z,42.38
2022-11-28T08:51:55.331Z,43.23
2022-11-28T08:54:23.444Z,42.73
2022-11-28T08:56:51.278Z,42.79
2022-11-28T08:59:19.598Z,42.89
2022-11-28T09:01:47.695Z,42.94
2022-11-28T09:04:16.309Z,42.91
2022-11-28T09:06:44.886Z,43.17
2022-11-28T09:09:13.051Z,43.46
2022-11-28T09:11:42.726Z,43.63
2022-11-28T09:14:10.836Z,43.52
2022-11-28T09:16:40.618Z,43.76
2022-11-28T09:19:11.178Z,44.11
2022-11-28T09:21:40.277Z,43.69
2022-11-28T09:24:09.626Z,44.49
2022-11-28T09:26:37.954Z,44.67
2022-11-28T09:29:06.742Z,44.61
2022-11-28T09:31:34.892Z,44.50
2022-11-28T09:34:04.425Z,44.36
2022-11-28T09:36:33.312Z,44.52
2022-11-28T09:39:02.515Z,44.52
2022-11-28T09:41:30.524Z,44.74
2022-11-28T09:44:09.526Z,44.74
2022-11-28T09:46:39.304Z,44.45
2022-11-28T09:49:31.328Z,44.55
2022-11-28T09:52:10.780Z,44.31
2022-11-28T09:54:47.387Z,44.21
2022-11-28T09:57:49.113Z,44.74
2022-11-28T10:00:26.639Z,44.51
2022-11-28T10:02:57.962Z,44.54
2022-11-28T10:05:53.974Z,44.34
2022-11-28T10:08:38.761Z,44.38
2022-11-28T10:11:32.725Z,44.36
2022-11-28T10:14:25.786Z,43.88
2022-11-28T10:17:17.904Z,43.76
2022-11-28T10:20:01.719Z,43.85
2022-11-28T10:22:58.975Z,43.49
2022-11-28T10:26:05.605Z,43.61
2022-11-28T10:28:38.317Z,43.82
2022-11-28T10:31:14.958Z,43.77
2022-11-28T10:33:56.476Z,43.88
2022-11-28T10:37:12.794Z,43.64
2022-11-28T10:39:44.387Z,43.85
2022-11-28T10:42:27.689Z,43.64
2022-11-28T10:45:43.823Z,43.54
2022-11-28T10:55:38.974Z,44.57
2022-11-28T10:58:36.941Z,44.79
2022-11-28T11:01:06.528Z,45.12
2022-11-28T11:03:36.529Z,45.38
2022-11-28T11:06:04.809Z,45.31
2022-11-28T11:08:38.394Z,45.34
2022-11-28T11:11:16.365Z,45.33
2022-11-28T11:14:09.442Z,45.27
2022-11-28T11:17:07.197Z,45.44
2022-11-28T11:19:38.005Z,45.69
2022-11-28T11:22:21.896Z,45.96
2022-11-28T11:25:16.805Z,46.38
2022-11-28T11:28:03.482Z,46.44
2022-11-28T11:30:35.581Z,46.20
2022-11-28T11:33:06.857Z,46.01
2022-11-28T11:35:37.289Z,45.86
2022-11-28T11:38:38.021Z,45.84
2022-11-28T11:41:28.309Z,46.30
2022-11-28T11:43:57.903Z,47.14
2022-11-28T11:46:26.592Z,46.47
2022-11-28T11:48:54.725Z,46.47
2022-11-28T11:51:27.016Z,46.76
2022-11-28T11:54:14.723Z,46.08
2022-11-28T11:56:45.015Z,45.67
2022-11-28T11:59:25.120Z,46.25
2022-11-28T12:01:59.085Z,45.95
2022-11-28T12:04:46.263Z,45.73
2022-11-28T12:07:28.762Z,45.33
2022-11-28T12:10:03.176Z,45.91
2022-11-28T12:12:38.002Z,45.91
2022-11-28T12:15:16.794Z,46.29
2022-11-28T12:18:01.330Z,45.89
2022-11-28T12:20:44.853Z,46.13
2022-11-28T12:23:24.491Z,45.41
2022-11-28T12:26:03.430Z,45.46
2022-11-28T12:29:00.702Z,44.92
2022-11-28T12:32:06.395Z,45.10
2022-11-28T12:34:41.961Z,45.07
2022-11-28T12:37:20.088Z,45.04
2022-11-28T12:40:09.935Z,44.52
2022-11-28T12:42:56.122Z,44.39
2022-11-28T12:45:34.029Z,44.20
2022-11-28T12:48:23.864Z,44.06
2022-11-28T12:51:11.697Z,44.02
2022-11-28T12:53:43.056Z,44.06
2022-11-28T12:56:35.076Z,44.10
2022-11-28T12:59:15.487Z,44.21
2022-11-28T13:01:46.763Z,43.70
2022-11-28T13:04:33.021Z,43.14
2022-11-28T13:07:36.522Z,43.28
2022-11-28T13:10:17.508Z,43.17
2022-11-28T13:13:02.572Z,43.15
2022-11-28T13:15:55.281Z,42.73
2022-11-28T13:18:46.028Z,42.92
2022-11-28T13:21:40.679Z,42.89
2022-11-28T13:24:29.392Z,43.02
2022-11-28T13:27:12.430Z,42.96
2022-11-28T13:29:57.774Z,42.71
2022-11-28T13:32:38.697Z,43.07
2022-11-28T13:35:14.142Z,42.74
2022-11-28T13:40:42.195Z,43.40
2022-11-28T13:43:33.254Z,44.74
2022-11-28T13:46:01.790Z,44.49
2022-11-28T13:49:12.565Z,44.53
2022-11-28T13:51:31.982Z,43.97
2022-11-28T13:54:21.847Z,43.60
2022-11-28T13:57:31.130Z,43.19
2022-11-28T14:00:02.116Z,45.17
2022-11-28T14:02:37.321Z,46.32
2022-11-28T14:05:15.052Z,48.68
2022-11-28T14:07:47.982Z,46.47
2022-11-28T14:10:49.238Z,45.36
2022-11-28T14:13:31.745Z,44.17
2022-11-28T14:16:15.577Z,45.94
2022-11-28T14:19:04.058Z,46.34
2022-11-28T14:21:54.335Z,44.87
2022-11-28T14:24:25.019Z,45.41
2022-11-28T14:27:00.153Z,44.28
2022-11-28T14:29:42.152Z,45.63
2022-11-28T14:32:38.496Z,47.08
2022-11-28T14:35:17.113Z,45.76
2022-11-28T14:37:55.484Z,45.92
2022-11-28T14:40:57.848Z,46.30
2022-11-28T14:43:34.924Z,46.70
2022-11-28T14:46:15.796Z,45.51
2022-11-28T14:48:59.489Z,45.90
2022-11-28T14:51:48.610Z,45.04
2022-11-28T14:54:43.035Z,45.03
2022-11-28T14:57:33.012Z,43.36
2022-11-28T15:00:08.317Z,43.63
2022-11-28T15:03:01.340Z,43.82
2022-11-28T15:05:50.897Z,45.00
2022-11-28T15:08:38.392Z,44.55
2022-11-28T15:11:28.314Z,44.04
2022-11-28T15:13:59.904Z,43.73
2022-11-28T15:16:31.603Z,44.89
2022-11-28T15:19:07.120Z,45.89
2022-11-28T15:21:47.105Z,45.77
2022-11-28T15:24:17.824Z,44.88
2022-11-28T15:26:47.445Z,45.11
2022-11-28T15:29:22.010Z,45.02
2022-11-28T15:31:53.539Z,45.49
2022-11-28T15:34:30.710Z,45.57
2022-11-28T15:37:18.644Z,45.23
2022-11-28T15:39:49.760Z,45.06
2022-11-28T15:42:30.674Z,45.39
2022-11-28T15:45:24.999Z,44.80
2022-11-28T15:47:54.917Z,45.55
2022-11-28T15:50:29.192Z,45.53
2022-11-28T15:53:04.020Z,46.32
2022-11-28T15:55:34.946Z,45.90
2022-11-28T15:58:31.596Z,46.61
2022-11-28T16:01:09.624Z,46.02
2022-11-28T16:03:58.094Z,46.61
2022-11-28T16:06:30.891Z,46.12
2022-11-28T16:09:24.708Z,46.35
2022-11-28T16:11:54.382Z,45.95
2022-11-28T16:14:35.492Z,45.85
2022-11-28T16:17:10.838Z,45.83
2022-11-28T16:19:39.018Z,45.48
2022-11-28T16:22:12.075Z,45.07
2022-11-28T16:24:57.635Z,45.65
2022-11-28T16:27:38.903Z,45.63
2022-11-28T16:30:37.399Z,45.66
2022-11-28T16:33:38.991Z,45.70
2022-11-28T16:36:31.383Z,45.57
2022-11-28T16:39:11.956Z,45.60
2022-11-28T16:41:43.090Z,45.75
2022-11-28T16:44:16.594Z,45.36
2022-11-28T16:46:53.114Z,45.52
2022-11-28T16:49:36.798Z,44.99
2022-11-28T16:52:24.490Z,44.36
2022-11-28T16:54:56.870Z,44.90
2022-11-28T16:57:30.238Z,45.00
2022-11-28T17:00:01.081Z,44.93
2022-11-28T17:02:29.202Z,44.92
2022-11-28T17:04:57.961Z,44.61
2022-11-28T17:07:26.071Z,44.71
2022-11-28T17:09:54.172Z,44.65
2022-11-28T17:12:33.032Z,44.90
2022-11-28T17:15:01.136Z,44.88
2022-11-28T17:17:31.029Z,44.97
2022-11-28T17:20:00.679Z,45.48
2022-11-28T17:22:45.835Z,44.90
2022-11-28T17:25:20.308Z,45.43
2022-11-28T17:27:48.586Z,45.25
2022-11-28T17:30:21.048Z,44.82
2022-11-28T17:32:49.169Z,44.95
2022-11-28T17:35:23.617Z,45.33
2022-11-28T17:37:51.712Z,45.48
2022-11-28T17:40:34.764Z,45.45
2022-11-28T17:43:03.703Z,45.55
2022-11-28T17:45:35.152Z,45.86
2022-11-28T17:48:03.320Z,45.83
2022-11-28T17:50:32.060Z,45.35
2022-11-28T17:53:01.797Z,45.68
2022-11-28T17:55:29.768Z,46.23
2022-11-28T17:57:58.494Z,46.96
2022-11-28T18:00:29.474Z,47.50
2022-11-28T18:02:58.479Z,46.77
2022-11-28T18:05:26.747Z,47.00
2022-11-28T18:07:55.946Z,47.81
2022-11-28T18:10:25.542Z,47.80
2022-11-28T18:12:54.142Z,47.18
2022-11-28T18:15:23.150Z,47.16
2022-11-28T18:17:51.011Z,46.99
2022-11-28T18:20:20.352Z,46.61
2022-11-28T18:22:49.001Z,46.54
2022-11-28T18:25:18.820Z,46.21
2022-11-28T18:27:47.537Z,46.21
2022-11-28T18:30:16.803Z,45.39
2022-11-28T18:32:44.866Z,45.58
2022-11-28T18:35:13.091Z,45.94
2022-11-28T18:37:40.885Z,46.12
2022-11-28T18:40:09.698Z,46.46
2022-11-28T18:42:38.725Z,46.07
2022-11-28T18:45:10.389Z,45.94
2022-11-28T18:47:39.339Z,45.62
2022-11-28T18:50:08.936Z,45.83
2022-11-28T18:52:37.025Z,46.09
2022-11-28T18:55:08.154Z,46.22
2022-11-28T18:57:36.804Z,47.33
2022-11-28T19:00:07.201Z,46.85
2022-11-28T19:02:35.791Z,46.39
2022-11-28T19:05:04.721Z,45.16
2022-11-28T19:07:33.498Z,44.99
2022-11-28T19:10:02.597Z,43.76
2022-11-28T19:12:31.041Z,44.44
2022-11-28T19:15:02.501Z,44.49
2022-11-28T19:17:31.532Z,45.12
2022-11-28T19:19:59.468Z,43.54
2022-11-28T19:22:27.504Z,43.80
2022-11-28T19:24:55.458Z,43.20
2022-11-28T19:27:23.429Z,45.13
2022-11-28T19:29:51.708Z,45.08
2022-11-28T19:32:19.814Z,43.35
2022-11-28T19:34:52.621Z,42.58
2022-11-28T19:37:20.737Z,41.71
2022-11-28T19:39:48.769Z,42.27
2022-11-28T19:42:18.232Z,41.63
2022-11-28T19:44:46.622Z,41.64
2022-11-28T19:47:14.610Z,41.31
2022-11-28T19:49:44.402Z,41.03
2022-11-28T19:52:12.649Z,40.77
2022-11-28T19:54:42.593Z,40.54
2022-11-28T19:57:11.553Z,41.20
2022-11-28T19:59:39.734Z,40.95
2022-11-28T20:02:09.317Z,41.27
2022-11-28T20:04:39.287Z,41.12
2022-11-28T20:07:07.565Z,41.53
2022-11-28T20:09:37.184Z,41.35
2022-11-28T20:12:05.668Z,41.91
2022-11-28T20:14:35.063Z,42.84
2022-11-28T20:17:04.513Z,43.11
2022-11-28T20:19:34.537Z,42.82
2022-11-28T20:22:02.796Z,42.96
2022-11-28T20:24:31.698Z,42.75
2022-11-28T20:26:59.663Z,42.89
2022-11-28T20:29:29.173Z,43.26
2022-11-28T20:31:57.605Z,43.48
2022-11-28T20:34:27.350Z,43.36
2022-11-28T20:36:55.477Z,43.63
2022-11-28T20:39:24.570Z,43.48
2022-11-28T20:41:52.505Z,43.34
2022-11-28T20:44:22.473Z,43.41
2022-11-28T20:46:50.542Z,43.63
2022-11-28T20:49:18.751Z,43.20
2022-11-28T20:51:48.925Z,43.40
2022-11-28T20:54:17.583Z,43.59
2022-11-28T20:57:13.307Z,44.04
2022-11-28T20:59:37.726Z,43.90
2022-11-28T21:02:05.770Z,44.17
2022-11-28T21:04:33.923Z,44.10
2022-11-28T21:07:01.989Z,44.23
2022-11-28T21:09:30.044Z,44.39
2022-11-28T21:11:59.208Z,44.22
2022-11-28T21:14:30.354Z,44.23
2022-11-28T21:16:59.832Z,44.45
2022-11-28T21:19:28.012Z,44.41
2022-11-28T21:21:56.110Z,44.52
2022-11-28T21:24:24.159Z,44.65
2022-11-28T21:26:54.280Z,44.50
2022-11-28T21:29:24.165Z,44.47
2022-11-28T21:31:55.756Z,44.74
2022-11-28T21:34:24.306Z,44.65
2022-11-28T21:36:54.266Z,44.77
2022-11-28T21:39:23.461Z,44.82
2022-11-28T21:41:51.483Z,44.66
2022-11-28T21:44:19.911Z,44.33
2022-11-28T21:46:48.183Z,44.59
2022-11-28T21:49:17.319Z,44.67
2022-11-28T21:51:45.958Z,44.51
2022-11-28T21:54:14.214Z,44.17
2022-11-28T21:56:45.993Z,44.28
2022-11-28T21:59:14.544Z,43.79
2022-11-28T22:01:42.810Z,43.63
2022-11-28T22:04:11.814Z,43.25
2022-11-28T22:06:40.741Z,42.57
2022-11-28T22:09:09.914Z,41.98
2022-11-28T22:11:40.050Z,42.09
2022-11-28T22:14:08.550Z,40.88
2022-11-28T22:16:36.759Z,41.72
2022-11-28T22:19:05.424Z,40.82
2022-11-28T22:21:54.333Z,40.38
2022-11-28T22:24:24.135Z,39.92
2022-11-28T22:26:53.483Z,40.30
2022-11-28T22:29:22.298Z,40.77
2022-11-28T22:31:50.433Z,40.61
2022-11-28T22:34:19.807Z,40.82
2022-11-28T22:36:47.854Z,40.71
2022-11-28T22:39:16.082Z,40.48
2022-11-28T22:41:44.259Z,39.96
2022-11-28T22:44:12.526Z,40.08
2022-11-28T22:46:40.800Z,40.12
2022-11-28T22:49:11.698Z,39.96
2022-11-28T22:51:40.425Z,39.71
2022-11-28T22:54:12.802Z,40.02
2022-11-28T22:56:41.083Z,39.82
2022-11-28T22:59:16.731Z,39.95
2022-11-28T23:01:45.081Z,40.33
2022-11-28T23:04:13.652Z,40.42
2022-11-28T23:06:42.700Z,40.03
2022-11-28T23:09:14.681Z,40.08
2022-11-28T23:11:43.256Z,40.40
2022-11-28T23:14:16.093Z,40.24
2022-11-28T23:16:45.248Z,40.46
2022-11-28T23:19:17.485Z,40.44
2022-11-28T23:21:49.290Z,40.82
2022-11-28T23:24:20.575Z,40.73
2022-11-28T23:26:51.588Z,40.61
2022-11-28T23:29:20.344Z,40.98
2022-11-28T23:31:50.379Z,41.18
2022-11-28T23:34:18.294Z,40.75
2022-11-28T23:36:47.695Z,40.76
2022-11-28T23:39:23.698Z,40.19
2022-11-28T23:41:52.333Z,39.86
2022-11-28T23:44:21.070Z,39.77
2022-11-28T23:46:49.969Z,39.42
2022-11-28T23:49:18.051Z,39.43
2022-11-28T23:51:46.729Z,39.37
2022-11-28T23:54:15.000Z,38.77
2022-11-28T23:56:44.451Z,39.04
2022-11-28T23:59:13.187Z,38.78
